createdAt,value
2022-08-02T00:00:57.183Z,100427.56
2022-08-02T00:03:24.681Z,100425.22
2022-08-02T00:05:53.209Z,100421.44
2022-08-02T00:08:21.987Z,100417.66
2022-08-02T00:10:49.932Z,100414.72
2022-08-02T00:13:17.919Z,100416.28
2022-08-02T00:15:45.027Z,100408.34
2022-08-02T00:18:12.093Z,100415.53
2022-08-02T00:20:39.073Z,100416.25
2022-08-02T00:23:06.147Z,100413.13
2022-08-02T00:25:33.161Z,100412.47
2022-08-02T00:28:00.277Z,100421.00
2022-08-02T00:30:27.256Z,100418.09
2022-08-02T00:32:54.180Z,100417.66
2022-08-02T00:35:21.367Z,100419.25
2022-08-02T00:37:48.367Z,100430.56
2022-08-02T00:40:15.540Z,100435.97
2022-08-02T00:42:44.233Z,100442.06
2022-08-02T00:45:11.353Z,100436.69
2022-08-02T00:47:38.309Z,100444.41
2022-08-02T00:50:06.217Z,100449.53
2022-08-02T00:52:33.142Z,100440.94
2022-08-02T00:55:00.213Z,100444.94
2022-08-02T00:57:27.176Z,100445.53
2022-08-02T00:59:54.091Z,100449.69
2022-08-02T01:02:21.192Z,100447.22
2022-08-02T01:04:48.224Z,100446.63
2022-08-02T01:07:15.852Z,100459.88
2022-08-02T01:09:43.876Z,100452.34
2022-08-02T01:12:11.967Z,100449.91
2022-08-02T01:14:44.189Z,100457.31
2022-08-02T01:17:47.070Z,100454.22
2022-08-02T01:20:47.937Z,100444.28
2022-08-02T01:23:52.555Z,100449.22
2022-08-02T01:26:51.310Z,100457.41
2022-08-02T01:29:31.479Z,100443.72
2022-08-02T01:32:19.765Z,100452.81
2022-08-02T01:35:20.415Z,100456.47
2022-08-02T01:38:00.381Z,100448.94
2022-08-02T01:40:31.839Z,100448.34
2022-08-02T01:42:59.784Z,100442.28
2022-08-02T01:45:31.055Z,100441.91
2022-08-02T01:48:00.027Z,100441.31
2022-08-02T01:50:32.643Z,100452.88
2022-08-02T01:53:05.728Z,100447.22
2022-08-02T01:55:57.018Z,100457.81
2022-08-02T01:58:31.683Z,100454.94
2022-08-02T02:01:01.239Z,100450.84
2022-08-02T02:03:29.978Z,100452.06
2022-08-02T02:05:58.969Z,100461.63
2022-08-02T02:08:39.072Z,100455.34
2022-08-02T02:12:12.086Z,100459.78
2022-08-02T02:13:55.534Z,100461.44
2022-08-02T02:16:23.940Z,100459.41
2022-08-02T02:18:52.724Z,100458.16
2022-08-02T02:21:19.991Z,100462.84
2022-08-02T02:23:47.007Z,100461.81
2022-08-02T02:26:20.859Z,100457.34
2022-08-02T02:29:02.150Z,100454.53
2022-08-02T02:31:35.041Z,100466.09
2022-08-02T02:34:10.352Z,100465.09
2022-08-02T02:36:41.989Z,100462.47
2022-08-02T02:39:13.766Z,100469.56
2022-08-02T02:41:43.014Z,100469.06
2022-08-02T02:44:14.180Z,100485.50
2022-08-02T02:46:41.904Z,100482.44
2022-08-02T02:49:11.596Z,100472.94
2022-08-02T02:51:42.604Z,100470.06
2022-08-02T02:54:31.112Z,100477.03
2022-08-02T02:57:01.065Z,100475.69
2022-08-02T02:59:28.922Z,100491.31
2022-08-02T03:01:58.073Z,100487.94
2022-08-02T03:04:56.453Z,100478.16
2022-08-02T03:07:16.210Z,100464.81
2022-08-02T03:09:43.483Z,100462.91
2022-08-02T03:12:11.640Z,100460.13
2022-08-02T03:14:43.802Z,100468.19
2022-08-02T03:17:10.878Z,100465.81
2022-08-02T03:19:39.263Z,100471.09
2022-08-02T03:22:06.339Z,100476.91
2022-08-02T03:24:33.252Z,100473.19
2022-08-02T03:27:00.279Z,100476.50
2022-08-02T03:29:30.332Z,100466.44
2022-08-02T03:31:59.778Z,100473.72
2022-08-02T03:34:26.994Z,100469.94
2022-08-02T03:36:56.406Z,100482.19
2022-08-02T03:39:23.977Z,100477.75
2022-08-02T03:41:51.577Z,100473.91
2022-08-02T03:44:18.808Z,100484.59
2022-08-02T03:46:47.326Z,100488.94
2022-08-02T03:49:16.715Z,100486.38
2022-08-02T03:51:45.374Z,100487.50
2022-08-02T03:54:14.739Z,100483.25
2022-08-02T03:56:42.159Z,100489.88
2022-08-02T03:59:13.264Z,100479.06
2022-08-02T04:01:41.001Z,100479.06
2022-08-02T04:04:08.793Z,100479.66
2022-08-02T04:06:40.250Z,100472.56
2022-08-02T04:09:09.763Z,100470.63
2022-08-02T04:11:37.889Z,100472.44
2022-08-02T04:14:11.160Z,100472.59
2022-08-02T04:16:45.622Z,100461.91
2022-08-02T04:19:23.831Z,100461.38
2022-08-02T04:21:53.382Z,100467.03
2022-08-02T04:24:28.606Z,100468.59
2022-08-02T04:27:19.285Z,100472.66
2022-08-02T04:29:47.144Z,100464.38
2022-08-02T04:32:16.146Z,100478.25
2022-08-02T04:34:54.246Z,100483.25
2022-08-02T04:37:32.194Z,100477.78
2022-08-02T04:39:59.215Z,100480.81
2022-08-02T04:42:27.378Z,100482.59
2022-08-02T04:44:54.823Z,100474.94
2022-08-02T04:48:01.568Z,100466.69
2022-08-02T04:50:10.118Z,100477.94
2022-08-02T04:52:37.063Z,100479.28
2022-08-02T04:55:04.612Z,100484.97
2022-08-02T04:57:52.987Z,100491.63
2022-08-02T05:00:20.832Z,100478.06
2022-08-02T05:02:48.607Z,100483.38
2022-08-02T05:05:16.186Z,100485.03
2022-08-02T05:07:44.328Z,100482.19
2022-08-02T05:10:11.570Z,100477.44
2022-08-02T05:12:41.781Z,100471.03
2022-08-02T05:15:12.795Z,100478.22
2022-08-02T05:17:45.512Z,100480.25
2022-08-02T05:20:19.636Z,100475.84
2022-08-02T05:22:47.526Z,100475.84
2022-08-02T05:25:15.847Z,100473.66
2022-08-02T05:27:42.927Z,100471.16
2022-08-02T05:30:11.194Z,100476.91
2022-08-02T05:32:50.430Z,100472.66
2022-08-02T05:35:23.161Z,100475.88
2022-08-02T05:37:51.729Z,100471.38
2022-08-02T05:40:26.087Z,100478.09
2022-08-02T05:42:56.715Z,100476.69
2022-08-02T05:45:23.870Z,100484.44
2022-08-02T05:47:51.328Z,100484.53
2022-08-02T05:50:18.924Z,100480.31
2022-08-02T05:52:48.828Z,100486.00
2022-08-02T05:55:40.651Z,100492.13
2022-08-02T05:58:16.685Z,100488.22
2022-08-02T06:00:45.511Z,100494.16
2022-08-02T06:03:37.133Z,100488.25
2022-08-02T06:06:20.700Z,100493.97
2022-08-02T06:08:51.875Z,100485.03
2022-08-02T06:11:23.412Z,100494.81
2022-08-02T06:13:51.767Z,100494.22
2022-08-02T06:16:31.762Z,100485.63
2022-08-02T06:19:01.761Z,100487.72
2022-08-02T06:22:33.663Z,100488.91
2022-08-02T06:24:19.714Z,100488.84
2022-08-02T06:26:52.622Z,100495.34
2022-08-02T06:29:23.370Z,100509.34
2022-08-02T06:31:53.568Z,100506.44
2022-08-02T06:34:20.571Z,100503.56
2022-08-02T06:37:39.082Z,100500.53
2022-08-02T06:40:28.027Z,100495.84
2022-08-02T06:43:18.837Z,100490.91
2022-08-02T06:45:45.974Z,100491.53
2022-08-02T06:48:13.038Z,100491.97
2022-08-02T06:50:42.049Z,100493.19
2022-08-02T06:53:10.778Z,100501.84
2022-08-02T06:55:43.380Z,100505.38
2022-08-02T06:58:12.827Z,100504.19
2022-08-02T07:00:42.236Z,100507.44
2022-08-02T07:03:09.468Z,100494.31
2022-08-02T07:05:36.703Z,100504.94
2022-08-02T07:08:04.194Z,100504.63
2022-08-02T07:10:31.287Z,100501.06
2022-08-02T07:12:59.867Z,100497.00
2022-08-02T07:15:27.190Z,100496.56
2022-08-02T07:17:54.230Z,100491.44
2022-08-02T07:20:21.237Z,100479.28
2022-08-02T07:22:48.240Z,100494.03
2022-08-02T07:25:15.657Z,100487.69
2022-08-02T07:27:43.007Z,100484.78
2022-08-02T07:30:10.906Z,100484.16
2022-08-02T07:32:38.194Z,100483.81
2022-08-02T07:35:07.690Z,100487.19
2022-08-02T07:37:55.271Z,100487.97
2022-08-02T07:40:25.022Z,100489.66
2022-08-02T07:42:59.363Z,100489.59
2022-08-02T07:45:31.240Z,100493.56
2022-08-02T07:47:58.357Z,100493.78
2022-08-02T07:50:25.750Z,100489.63
2022-08-02T07:52:57.095Z,100485.59
2022-08-02T07:55:38.943Z,100496.13
2022-08-02T07:58:13.005Z,100494.25
2022-08-02T08:00:44.495Z,100480.78
2022-08-02T08:03:12.016Z,100489.19
2022-08-02T08:05:39.191Z,100468.91
2022-08-02T08:08:06.614Z,100470.16
2022-08-02T08:10:34.271Z,100466.81
2022-08-02T08:13:01.263Z,100477.78
2022-08-02T08:15:28.276Z,100469.66
2022-08-02T08:17:55.264Z,100464.25
2022-08-02T08:20:23.102Z,100453.22
2022-08-02T08:22:50.250Z,100453.16
2022-08-02T08:25:17.232Z,100449.34
2022-08-02T08:27:53.647Z,100455.13
2022-08-02T08:30:22.816Z,100447.34
2022-08-02T08:32:50.023Z,100462.19
2022-08-02T08:35:17.347Z,100467.59
2022-08-02T08:37:44.366Z,100466.00
2022-08-02T08:40:12.701Z,100458.25
2022-08-02T08:42:40.547Z,100452.22
2022-08-02T08:45:09.178Z,100465.34
2022-08-02T08:47:42.179Z,100463.19
2022-08-02T08:50:25.778Z,100446.91
2022-08-02T08:53:09.098Z,100455.47
2022-08-02T08:55:39.465Z,100452.00
2022-08-02T08:58:06.968Z,100451.16
2022-08-02T09:00:36.011Z,100446.16
2022-08-02T09:03:06.106Z,100431.84
2022-08-02T09:05:36.914Z,100438.56
2022-08-02T09:08:05.246Z,100448.94
2022-08-02T09:10:44.948Z,100449.84
2022-08-02T09:13:45.490Z,100454.59
2022-08-02T09:16:14.562Z,100458.72
2022-08-02T09:18:47.176Z,100450.47
2022-08-02T09:21:17.187Z,100452.91
2022-08-02T09:23:50.559Z,100440.69
2022-08-02T09:26:24.961Z,100437.47
2022-08-02T09:29:00.475Z,100433.53
2022-08-02T09:31:28.211Z,100420.81
2022-08-02T09:34:00.466Z,100414.94
2022-08-02T09:36:43.764Z,100425.22
2022-08-02T09:39:16.395Z,100419.06
2022-08-02T09:41:45.663Z,100415.25
2022-08-02T09:44:16.540Z,100423.97
2022-08-02T09:46:46.177Z,100428.09
2022-08-02T09:49:19.743Z,100429.47
2022-08-02T09:51:47.092Z,100409.59
2022-08-02T09:54:29.048Z,100404.66
2022-08-02T09:57:01.952Z,100401.66
2022-08-02T09:59:30.863Z,100409.47
2022-08-02T10:02:02.007Z,100408.94
2022-08-02T10:04:34.394Z,100399.59
2022-08-02T10:07:21.701Z,100402.50
2022-08-02T10:09:51.052Z,100406.25
2022-08-02T10:12:25.037Z,100398.34
2022-08-02T10:14:52.438Z,100381.75
2022-08-02T10:17:21.088Z,100375.50
2022-08-02T10:20:00.032Z,100376.75
2022-08-02T10:22:31.304Z,100371.88
2022-08-02T10:24:58.302Z,100366.09
2022-08-02T10:27:25.946Z,100377.47
2022-08-02T10:29:57.879Z,100369.16
2022-08-02T10:32:34.883Z,100366.72
2022-08-02T10:35:18.568Z,100375.25
2022-08-02T10:37:55.943Z,100376.94
2022-08-02T10:40:23.873Z,100355.91
2022-08-02T10:42:53.523Z,100341.25
2022-08-02T10:45:23.121Z,100337.88
2022-08-02T10:48:16.581Z,100338.16
2022-08-02T10:50:49.189Z,100341.19
2022-08-02T10:53:29.207Z,100331.50
2022-08-02T10:56:01.577Z,100332.53
2022-08-02T10:58:34.325Z,100336.56
2022-08-02T11:01:43.610Z,100326.34
2022-08-02T11:04:10.893Z,100334.66
2022-08-02T11:07:19.619Z,100333.69
2022-08-02T11:09:49.953Z,100334.38
2022-08-02T11:12:21.566Z,100334.59
2022-08-02T11:15:07.818Z,100330.00
2022-08-02T11:17:56.135Z,100319.75
2022-08-02T11:20:29.481Z,100323.56
2022-08-02T11:23:44.505Z,100322.44
2022-08-02T11:26:31.182Z,100321.47
2022-08-02T11:29:01.113Z,100314.34
2022-08-02T11:31:30.099Z,100297.19
2022-08-02T11:33:57.122Z,100309.13
2022-08-02T11:36:24.282Z,100307.81
2022-08-02T11:39:08.947Z,100304.94
2022-08-02T11:41:46.121Z,100303.72
2022-08-02T11:44:14.653Z,100300.94
2022-08-02T11:46:41.953Z,100298.56
2022-08-02T11:49:14.848Z,100302.31
2022-08-02T11:52:06.838Z,100302.19
2022-08-02T11:54:44.015Z,100289.59
2022-08-02T11:57:18.913Z,100290.69
2022-08-02T11:59:49.719Z,100292.97
2022-08-02T12:02:19.599Z,100299.78
2022-08-02T12:05:04.820Z,100288.03
2022-08-02T12:07:46.103Z,100293.72
2022-08-02T12:10:24.482Z,100293.94
2022-08-02T12:12:57.941Z,100290.06
2022-08-02T12:15:33.872Z,100286.03
2022-08-02T12:18:20.269Z,100277.81
2022-08-02T12:20:47.485Z,100285.72
2022-08-02T12:23:14.799Z,100288.56
2022-08-02T12:25:42.167Z,100291.28
2022-08-02T12:28:22.192Z,100288.66
2022-08-02T12:31:01.488Z,100290.88
2022-08-02T12:33:45.820Z,100277.84
2022-08-02T12:36:32.748Z,100268.72
2022-08-02T12:39:01.519Z,100272.03
2022-08-02T12:41:32.258Z,100261.38
2022-08-02T12:44:00.336Z,100260.56
2022-08-02T12:46:27.788Z,100272.53
2022-08-02T12:49:16.460Z,100275.63
2022-08-02T12:51:56.647Z,100264.22
2022-08-02T12:54:40.939Z,100259.47
2022-08-02T12:57:19.211Z,100260.41
2022-08-02T12:59:53.990Z,100245.91
2022-08-02T13:02:21.817Z,100253.97
2022-08-02T13:04:50.164Z,100257.22
2022-08-02T13:07:19.250Z,100249.88
2022-08-02T13:09:48.178Z,100240.56
2022-08-02T13:12:16.391Z,100234.91
2022-08-02T13:14:43.685Z,100226.69
2022-08-02T13:17:11.914Z,100225.56
2022-08-02T13:19:39.015Z,100219.50
2022-08-02T13:22:08.670Z,100216.81
2022-08-02T13:24:40.868Z,100215.59
2022-08-02T13:27:23.204Z,100209.31
2022-08-02T13:29:51.519Z,100208.50
2022-08-02T13:32:18.783Z,100217.09
2022-08-02T13:34:46.002Z,100212.69
2022-08-02T13:37:13.095Z,100215.19
2022-08-02T13:39:40.419Z,100200.50
2022-08-02T13:42:07.633Z,100206.09
2022-08-02T13:44:35.572Z,100204.13
2022-08-02T13:47:03.546Z,100204.81
2022-08-02T13:49:51.627Z,100201.56
2022-08-02T13:52:17.871Z,100205.78
2022-08-02T13:54:44.848Z,100208.22
2022-08-02T13:57:11.813Z,100200.63
2022-08-02T13:59:56.154Z,100188.28
2022-08-02T14:02:28.353Z,100189.56
2022-08-02T14:04:56.700Z,100191.53
2022-08-02T14:07:23.706Z,100197.44
2022-08-02T14:09:50.629Z,100200.22
2022-08-02T14:12:17.782Z,100189.81
2022-08-02T14:14:44.811Z,100184.34
2022-08-02T14:17:11.882Z,100186.38
2022-08-02T14:19:39.843Z,100189.91
2022-08-02T14:22:12.042Z,100187.63
2022-08-02T14:24:41.491Z,100177.63
2022-08-02T14:27:08.927Z,100179.03
2022-08-02T14:29:35.984Z,100170.66
2022-08-02T14:32:03.303Z,100173.94
2022-08-02T14:34:30.349Z,100179.75
2022-08-02T14:36:57.269Z,100173.81
2022-08-02T14:39:24.552Z,100173.78
2022-08-02T14:41:59.445Z,100171.47
2022-08-02T14:44:30.695Z,100170.94
2022-08-02T14:46:57.791Z,100162.78
2022-08-02T14:49:26.832Z,100156.97
2022-08-02T14:51:55.455Z,100149.22
2022-08-02T14:54:28.032Z,100163.47
2022-08-02T14:57:03.343Z,100163.94
2022-08-02T14:59:31.087Z,100153.06
2022-08-02T15:01:59.110Z,100162.31
2022-08-02T15:04:26.995Z,100156.72
2022-08-02T15:06:54.967Z,100155.91
2022-08-02T15:09:22.357Z,100139.59
2022-08-02T15:11:49.849Z,100147.25
2022-08-02T15:14:20.516Z,100142.53
2022-08-02T15:16:57.234Z,100146.53
2022-08-02T15:19:56.731Z,100129.69
2022-08-02T15:22:17.076Z,100136.25
2022-08-02T15:24:46.307Z,100129.00
2022-08-02T15:27:14.687Z,100128.84
2022-08-02T15:29:44.408Z,100128.13
2022-08-02T15:32:13.115Z,100125.03
2022-08-02T15:34:40.461Z,100126.31
2022-08-02T15:37:07.554Z,100128.88
2022-08-02T15:39:34.601Z,100123.25
2022-08-02T15:42:01.737Z,100124.38
2022-08-02T15:44:29.099Z,100125.06
2022-08-02T15:46:56.240Z,100120.25
2022-08-02T15:49:24.708Z,100119.94
2022-08-02T15:51:52.910Z,100124.56
2022-08-02T15:54:20.521Z,100117.47
2022-08-02T15:56:48.011Z,100123.78
2022-08-02T15:59:15.280Z,100115.88
2022-08-02T16:01:47.231Z,100123.88
2022-08-02T16:04:16.504Z,100121.69
2022-08-02T16:06:44.325Z,100131.25
2022-08-02T16:09:12.024Z,100124.97
2022-08-02T16:11:40.306Z,100128.19
2022-08-02T16:14:07.804Z,100122.88
2022-08-02T16:16:37.048Z,100129.78
2022-08-02T16:19:46.586Z,100125.75
2022-08-02T16:21:53.823Z,100128.28
2022-08-02T16:24:21.290Z,100123.03
2022-08-02T16:26:48.831Z,100124.41
2022-08-02T16:29:18.854Z,100125.56
2022-08-02T16:31:47.969Z,100127.88
2022-08-02T16:34:16.408Z,100131.66
2022-08-02T16:36:44.041Z,100129.56
2022-08-02T16:39:11.557Z,100120.66
2022-08-02T16:41:50.602Z,100125.44
2022-08-02T16:44:27.089Z,100123.03
2022-08-02T16:47:00.518Z,100124.28
2022-08-02T16:50:05.675Z,100117.59
2022-08-02T16:52:14.735Z,100118.16
2022-08-02T16:54:41.759Z,100126.31
2022-08-02T16:57:08.745Z,100113.06
2022-08-02T16:59:41.816Z,100115.78
2022-08-02T17:02:18.111Z,100117.94
2022-08-02T17:04:47.589Z,100119.06
2022-08-02T17:08:15.614Z,100103.47
2022-08-02T17:10:06.515Z,100109.13
2022-08-02T17:12:36.565Z,100112.19
2022-08-02T17:16:01.089Z,100105.72
2022-08-02T17:17:51.681Z,100112.63
2022-08-02T17:20:20.603Z,100117.97
2022-08-02T17:22:47.941Z,100105.59
2022-08-02T17:25:17.512Z,100115.41
2022-08-02T17:27:45.720Z,100117.53
2022-08-02T17:30:14.141Z,100123.81
2022-08-02T17:32:45.671Z,100122.94
2022-08-02T17:35:15.742Z,100118.84
2022-08-02T17:37:54.722Z,100120.00
2022-08-02T17:40:27.306Z,100116.44
2022-08-02T17:42:54.336Z,100124.13
2022-08-02T17:45:25.825Z,100119.97
2022-08-02T17:48:04.898Z,100124.94
2022-08-02T17:50:36.644Z,100124.78
2022-08-02T17:53:04.691Z,100132.97
2022-08-02T17:55:33.213Z,100137.03
2022-08-02T17:58:00.226Z,100132.59
2022-08-02T18:00:36.619Z,100130.44
2022-08-02T18:03:07.828Z,100132.16
2022-08-02T18:05:39.429Z,100134.31
2022-08-02T18:08:09.274Z,100136.03
2022-08-02T18:10:36.252Z,100142.31
2022-08-02T18:13:05.296Z,100143.59
2022-08-02T18:15:33.360Z,100150.66
2022-08-02T18:18:00.793Z,100147.38
2022-08-02T18:20:27.844Z,100138.50
2022-08-02T18:22:58.382Z,100139.78
2022-08-02T18:25:37.183Z,100138.69
2022-08-02T18:28:11.479Z,100130.59
2022-08-02T18:30:39.097Z,100131.19
2022-08-02T18:33:54.946Z,100130.50
2022-08-02T18:35:55.321Z,100137.00
2022-08-02T18:38:26.740Z,100144.22
2022-08-02T18:40:55.461Z,100143.69
2022-08-02T18:43:25.279Z,100145.81
2022-08-02T18:46:07.391Z,100150.41
2022-08-02T18:48:44.156Z,100144.25
2022-08-02T18:51:14.643Z,100150.44
2022-08-02T18:53:43.074Z,100146.91
2022-08-02T18:56:20.262Z,100158.69
2022-08-02T18:58:54.647Z,100159.78
2022-08-02T19:01:32.036Z,100151.44
2022-08-02T19:04:02.773Z,100152.78
2022-08-02T19:06:30.721Z,100162.59
2022-08-02T19:09:04.924Z,100159.06
2022-08-02T19:11:40.776Z,100160.44
2022-08-02T19:14:08.611Z,100164.66
2022-08-02T19:16:37.295Z,100165.06
2022-08-02T19:19:06.595Z,100158.34
2022-08-02T19:22:18.752Z,100161.53
2022-08-02T19:24:20.897Z,100165.75
2022-08-02T19:29:43.301Z,100178.44
2022-08-02T19:32:41.830Z,100181.03
2022-08-02T19:35:19.671Z,100191.28
2022-08-02T19:37:54.059Z,100193.41
2022-08-02T19:40:24.443Z,100188.34
2022-08-02T19:44:21.123Z,100196.25
2022-08-02T19:45:49.010Z,100187.25
2022-08-02T19:48:18.326Z,100196.91
2022-08-02T19:50:56.761Z,100190.31
2022-08-02T19:53:28.496Z,100190.03
2022-08-02T19:56:01.204Z,100189.72
2022-08-02T19:58:32.434Z,100196.09
2022-08-02T20:00:59.653Z,100201.63
2022-08-02T20:03:51.065Z,100205.66
2022-08-02T20:06:13.874Z,100204.72
2022-08-02T20:08:52.964Z,100205.22
2022-08-02T20:11:23.316Z,100209.59
2022-08-02T20:13:52.601Z,100207.97
2022-08-02T20:16:20.812Z,100206.22
2022-08-02T20:18:56.506Z,100200.97
2022-08-02T20:21:36.469Z,100212.34
2022-08-02T20:24:11.910Z,100209.91
2022-08-02T20:26:47.156Z,100212.53
2022-08-02T20:29:14.315Z,100214.91
2022-08-02T20:31:41.244Z,100210.81
2022-08-02T20:34:08.222Z,100207.03
2022-08-02T20:36:35.189Z,100205.06
2022-08-02T20:39:02.284Z,100207.59
2022-08-02T20:41:36.716Z,100205.06
2022-08-02T20:44:16.217Z,100212.44
2022-08-02T20:46:57.160Z,100208.56
2022-08-02T20:49:40.535Z,100212.63
2022-08-02T20:52:23.620Z,100208.72
2022-08-02T20:54:52.818Z,100214.91
2022-08-02T20:57:48.946Z,100219.59
2022-08-02T21:00:09.079Z,100222.19
2022-08-02T21:02:36.128Z,100220.81
2022-08-02T21:05:07.701Z,100220.59
2022-08-02T21:07:35.070Z,100235.56
2022-08-02T21:10:02.812Z,100223.56
2022-08-02T21:12:30.488Z,100209.72
2022-08-02T21:14:57.646Z,100218.22
2022-08-02T21:17:37.220Z,100224.94
2022-08-02T21:20:13.824Z,100226.97
2022-08-02T21:22:44.642Z,100214.97
2022-08-02T21:25:15.770Z,100207.53
2022-08-02T21:27:52.237Z,100208.84
2022-08-02T21:30:24.312Z,100206.41
2022-08-02T21:32:54.682Z,100209.97
2022-08-02T21:35:25.108Z,100204.06
2022-08-02T21:37:58.363Z,100207.59
2022-08-02T21:40:25.599Z,100212.31
2022-08-02T21:42:54.062Z,100204.53
2022-08-02T21:45:21.068Z,100215.75
2022-08-02T21:47:48.768Z,100218.56
2022-08-02T21:50:16.559Z,100214.72
2022-08-02T21:52:52.263Z,100219.91
2022-08-02T21:55:21.266Z,100212.94
2022-08-02T21:57:51.508Z,100216.31
2022-08-02T22:00:28.321Z,100215.50
2022-08-02T22:02:56.284Z,100217.34
2022-08-02T22:05:23.624Z,100215.47
2022-08-02T22:07:50.725Z,100220.63
2022-08-02T22:10:17.810Z,100232.44
2022-08-02T22:12:45.059Z,100232.44
2022-08-02T22:15:12.144Z,100233.47
2022-08-02T22:17:51.903Z,100234.91
2022-08-02T22:20:21.459Z,100232.81
2022-08-02T22:22:52.163Z,100239.41
2022-08-02T22:25:26.444Z,100233.09
2022-08-02T22:28:35.066Z,100238.94
2022-08-02T22:30:52.836Z,100240.22
2022-08-02T22:33:42.438Z,100243.47
2022-08-02T22:36:19.634Z,100239.09
2022-08-02T22:38:56.395Z,100240.13
2022-08-02T22:41:23.491Z,100239.31
2022-08-02T22:43:50.753Z,100233.78
2022-08-02T22:46:17.939Z,100236.03
2022-08-02T22:48:45.803Z,100237.84
2022-08-02T22:51:14.678Z,100236.16
2022-08-02T22:53:44.595Z,100239.66
2022-08-02T22:56:14.614Z,100238.66
2022-08-02T22:58:48.002Z,100173.94
2022-08-02T23:01:29.972Z,100249.34
2022-08-02T23:03:56.955Z,100252.78
2022-08-02T23:06:23.911Z,100248.88
2022-08-02T23:08:50.928Z,100244.22
2022-08-02T23:11:17.920Z,100265.75
2022-08-02T23:13:44.919Z,100260.06
2022-08-02T23:16:30.189Z,100266.00
2022-08-02T23:19:15.583Z,100263.19
2022-08-02T23:22:01.579Z,100272.47
2022-08-02T23:24:30.510Z,100278.69
2022-08-02T23:26:57.494Z,100286.84
2022-08-02T23:29:24.564Z,100279.97
2022-08-02T23:31:51.569Z,100268.72
2022-08-02T23:34:20.095Z,100267.75
2022-08-02T23:36:47.128Z,100265.91
2022-08-02T23:39:14.111Z,100263.84
2022-08-02T23:41:41.080Z,100270.38
2022-08-02T23:44:15.620Z,100257.66
2022-08-02T23:46:44.702Z,100255.88
2022-08-02T23:49:12.754Z,100261.22
2022-08-02T23:51:40.835Z,100259.53
2022-08-02T23:54:08.041Z,100260.59
2022-08-02T23:56:35.100Z,100262.88
2022-08-02T23:59:02.078Z,100259.97
